createdAt,value
2018-09-20T00:00:33.673Z,99.99
2018-09-20T00:01:33.612Z,99.99
2018-09-20T00:02:33.554Z,99.99
2018-09-20T00:03:33.493Z,99.99
2018-09-20T00:04:33.436Z,99.99
2018-09-20T00:05:33.374Z,99.99
2018-09-20T00:06:33.316Z,99.99
2018-09-20T00:07:33.255Z,99.99
2018-09-20T00:08:33.196Z,99.99
2018-09-20T00:09:33.135Z,99.99
2018-09-20T00:10:33.076Z,99.99
2018-09-20T00:11:33.023Z,99.99
2018-09-20T00:12:32.956Z,99.99
2018-09-20T00:13:32.897Z,99.99
2018-09-20T00:14:32.839Z,99.99
2018-09-20T00:15:32.779Z,99.99
2018-09-20T00:16:32.718Z,99.99
2018-09-20T00:17:32.660Z,99.99
2018-09-20T00:18:32.600Z,99.99
2018-09-20T00:19:32.540Z,99.99
2018-09-20T00:20:32.481Z,99.99
2018-09-20T00:21:32.419Z,99.99
2018-09-20T00:22:32.362Z,99.99
2018-09-20T00:23:32.302Z,99.99
2018-09-20T00:24:32.242Z,99.99
2018-09-20T00:25:32.180Z,99.99
2018-09-20T00:26:32.122Z,99.99
2018-09-20T00:27:32.064Z,99.99
2018-09-20T00:28:32.002Z,99.99
2018-09-20T00:29:31.943Z,99.99
2018-09-20T00:30:31.884Z,99.99
2018-09-20T00:31:31.825Z,99.99
2018-09-20T00:32:31.764Z,99.99
2018-09-20T00:33:31.703Z,99.99
2018-09-20T00:34:31.645Z,99.99
2018-09-20T00:35:31.584Z,99.99
2018-09-20T00:36:31.526Z,99.99
2018-09-20T00:37:31.462Z,99.99
2018-09-20T00:38:31.404Z,99.99
2018-09-20T00:39:31.345Z,99.99
2018-09-20T00:40:31.285Z,99.99
2018-09-20T00:41:31.227Z,99.99
2018-09-20T00:42:31.165Z,99.99
2018-09-20T00:43:31.108Z,99.99
2018-09-20T00:44:31.045Z,99.99
2018-09-20T00:45:30.987Z,99.99
2018-09-20T00:46:30.927Z,99.99
2018-09-20T00:47:30.866Z,99.99
2018-09-20T00:48:30.808Z,99.99
2018-09-20T00:49:30.746Z,99.99
2018-09-20T00:50:30.687Z,99.99
2018-09-20T00:51:30.628Z,99.99
2018-09-20T00:52:30.569Z,99.99
2018-09-20T00:53:30.507Z,99.99
2018-09-20T00:54:30.446Z,99.99
2018-09-20T00:55:30.389Z,99.99
2018-09-20T00:56:30.327Z,99.99
2018-09-20T00:57:30.268Z,99.99
2018-09-20T00:58:30.213Z,99.99
2018-09-20T00:59:30.150Z,99.99
2018-09-20T01:00:30.094Z,99.99
2018-09-20T01:01:30.028Z,99.99
2018-09-20T01:02:29.968Z,99.99
2018-09-20T01:03:29.909Z,99.99
2018-09-20T01:04:29.849Z,99.99
2018-09-20T01:05:29.787Z,99.99
2018-09-20T01:06:29.728Z,99.99
2018-09-20T01:07:29.667Z,99.99
2018-09-20T01:08:29.610Z,99.99
2018-09-20T01:09:29.547Z,99.99
2018-09-20T01:10:29.497Z,99.99
2018-09-20T01:11:29.428Z,99.99
2018-09-20T01:12:29.371Z,99.99
2018-09-20T01:13:29.308Z,99.99
2018-09-20T01:14:29.247Z,99.99
2018-09-20T01:15:29.190Z,99.99
2018-09-20T01:16:29.130Z,99.99
2018-09-20T01:17:29.067Z,99.99
2018-09-20T01:18:29.007Z,99.99
2018-09-20T01:19:28.949Z,99.99
2018-09-20T01:20:28.890Z,99.99
2018-09-20T01:21:28.828Z,99.99
2018-09-20T01:22:28.768Z,99.99
2018-09-20T01:23:28.708Z,99.99
2018-09-20T01:24:28.648Z,99.99
2018-09-20T01:25:28.589Z,99.99
2018-09-20T01:26:28.527Z,99.99
2018-09-20T01:27:28.470Z,99.99
2018-09-20T01:28:28.408Z,99.99
2018-09-20T01:29:28.347Z,99.99
2018-09-20T01:30:28.288Z,99.99
2018-09-20T01:31:28.226Z,99.99
2018-09-20T01:32:28.166Z,99.99
2018-09-20T01:33:28.106Z,99.99
2018-09-20T01:34:28.046Z,99.99
2018-09-20T01:35:28.019Z,99.99
2018-09-20T01:36:27.929Z,99.99
2018-09-20T01:37:27.866Z,99.99
2018-09-20T01:38:27.807Z,99.99
2018-09-20T01:39:27.748Z,99.99
2018-09-20T01:40:27.690Z,99.99
2018-09-20T01:41:27.624Z,99.99
2018-09-20T01:42:27.567Z,99.99
2018-09-20T01:43:27.510Z,99.99
2018-09-20T01:44:27.447Z,99.99
2018-09-20T01:45:27.385Z,99.99
2018-09-20T01:46:27.324Z,99.99
2018-09-20T01:47:27.267Z,99.99
2018-09-20T01:48:27.207Z,99.99
2018-09-20T01:49:27.143Z,99.99
2018-09-20T01:50:27.086Z,99.99
2018-09-20T01:51:27.022Z,99.99
2018-09-20T01:52:26.962Z,99.99
2018-09-20T01:53:26.901Z,99.99
2018-09-20T01:54:26.843Z,99.99
2018-09-20T01:55:26.782Z,99.99
2018-09-20T01:56:26.722Z,99.99
2018-09-20T01:57:26.660Z,99.99
2018-09-20T01:58:26.600Z,99.99
2018-09-20T01:59:26.540Z,99.99
2018-09-20T02:00:26.482Z,99.99
2018-09-20T02:01:26.419Z,99.99
2018-09-20T02:02:26.359Z,99.99
2018-09-20T02:03:26.303Z,99.99
2018-09-20T02:04:26.239Z,99.99
2018-09-20T02:05:26.178Z,99.99
2018-09-20T02:06:26.117Z,99.99
2018-09-20T02:07:26.056Z,99.99
2018-09-20T02:08:25.999Z,99.99
2018-09-20T02:09:25.937Z,99.99
2018-09-20T02:10:25.877Z,99.99
2018-09-20T02:11:25.816Z,99.99
2018-09-20T02:12:25.758Z,99.99
2018-09-20T02:13:25.697Z,99.99
2018-09-20T02:14:25.636Z,99.99
2018-09-20T02:15:25.574Z,99.99
2018-09-20T02:16:25.515Z,99.99
2018-09-20T02:17:25.455Z,99.99
2018-09-20T02:18:25.393Z,99.99
2018-09-20T02:19:25.335Z,99.99
2018-09-20T02:20:25.274Z,99.99
2018-09-20T02:21:25.211Z,99.99
2018-09-20T02:22:25.152Z,99.99
2018-09-20T02:23:25.096Z,99.99
2018-09-20T02:24:25.032Z,99.99
2018-09-20T02:25:24.970Z,99.99
2018-09-20T02:26:24.912Z,99.99
2018-09-20T02:27:24.850Z,99.99
2018-09-20T02:28:24.790Z,99.99
2018-09-20T02:29:24.728Z,99.99
2018-09-20T02:30:24.668Z,99.99
2018-09-20T02:31:24.608Z,99.99
2018-09-20T02:32:24.549Z,99.99
2018-09-20T02:33:24.489Z,99.99
2018-09-20T02:34:24.427Z,99.99
2018-09-20T02:35:24.369Z,99.99
2018-09-20T02:36:24.307Z,99.99
2018-09-20T02:37:24.249Z,99.99
2018-09-20T02:38:24.194Z,99.99
2018-09-20T02:39:24.125Z,99.99
2018-09-20T02:40:24.102Z,99.99
2018-09-20T02:41:24.007Z,99.99
2018-09-20T02:42:23.946Z,99.99
2018-09-20T02:43:23.884Z,99.99
2018-09-20T02:44:23.824Z,99.99
2018-09-20T02:45:23.762Z,99.99
2018-09-20T02:46:23.702Z,99.99
2018-09-20T02:47:23.643Z,99.99
2018-09-20T02:48:23.581Z,99.99
2018-09-20T02:49:23.525Z,99.99
2018-09-20T02:50:23.461Z,99.99
2018-09-20T02:51:23.403Z,99.99
2018-09-20T02:52:23.342Z,99.99
2018-09-20T02:53:23.281Z,99.99
2018-09-20T02:54:23.219Z,99.99
2018-09-20T02:55:23.158Z,99.99
2018-09-20T02:56:23.099Z,99.99
2018-09-20T02:57:23.039Z,99.99
2018-09-20T02:58:22.979Z,99.99
2018-09-20T02:59:22.915Z,99.99
2018-09-20T03:00:22.864Z,99.99
2018-09-20T03:01:22.796Z,99.99
2018-09-20T03:02:22.756Z,99.99
2018-09-20T03:03:22.678Z,99.99
2018-09-20T03:04:22.615Z,99.99
2018-09-20T03:05:22.561Z,99.99
2018-09-20T03:06:22.494Z,99.99
2018-09-20T03:07:22.432Z,99.99
2018-09-20T03:08:22.372Z,99.99
2018-09-20T03:09:22.311Z,99.99
2018-09-20T03:10:22.251Z,99.99
2018-09-20T03:11:22.191Z,99.99
2018-09-20T03:12:22.131Z,99.99
2018-09-20T03:13:22.070Z,99.99
2018-09-20T03:14:22.009Z,99.99
2018-09-20T03:15:21.949Z,99.99
2018-09-20T03:16:21.889Z,99.99
2018-09-20T03:17:21.823Z,99.99
2018-09-20T03:18:21.767Z,99.99
2018-09-20T03:19:21.706Z,99.99
2018-09-20T03:20:21.647Z,99.99
2018-09-20T03:21:21.590Z,99.99
2018-09-20T03:22:21.526Z,99.99
2018-09-20T03:23:21.466Z,99.99
2018-09-20T03:24:21.405Z,99.99
2018-09-20T03:25:21.344Z,99.99
2018-09-20T03:26:21.283Z,99.99
2018-09-20T03:27:21.221Z,99.99
2018-09-20T03:28:21.165Z,99.99
2018-09-20T03:29:21.107Z,99.99
2018-09-20T03:30:21.098Z,99.99
2018-09-20T03:31:20.980Z,99.99
2018-09-20T03:32:20.922Z,99.99
2018-09-20T03:33:20.860Z,99.99
2018-09-20T03:34:20.797Z,99.99
2018-09-20T03:35:20.742Z,99.99
2018-09-20T03:36:20.677Z,99.99
2018-09-20T03:37:20.616Z,99.99
2018-09-20T03:38:20.557Z,99.99
2018-09-20T03:39:20.497Z,99.99
2018-09-20T03:40:20.439Z,99.99
2018-09-20T03:41:20.374Z,99.99
2018-09-20T03:42:20.319Z,99.99
2018-09-20T03:43:20.253Z,99.99
2018-09-20T03:44:20.195Z,99.99
2018-09-20T03:45:20.132Z,99.99
2018-09-20T03:46:20.073Z,99.99
2018-09-20T03:47:20.011Z,99.99
2018-09-20T03:48:19.950Z,99.99
2018-09-20T03:49:19.888Z,99.99
2018-09-20T03:50:19.829Z,99.99
2018-09-20T03:51:19.770Z,99.99
2018-09-20T03:52:19.708Z,99.99
2018-09-20T03:53:19.646Z,99.99
2018-09-20T03:54:19.586Z,99.99
2018-09-20T03:55:19.527Z,99.99
2018-09-20T03:56:19.466Z,99.99
2018-09-20T03:57:19.405Z,99.99
2018-09-20T03:58:19.346Z,99.99
2018-09-20T03:59:19.284Z,99.99
2018-09-20T04:00:19.244Z,99.99
2018-09-20T04:01:19.164Z,99.99
2018-09-20T04:02:19.101Z,99.99
2018-09-20T04:03:19.044Z,99.99
2018-09-20T04:04:18.981Z,99.99
2018-09-20T04:05:18.921Z,99.99
2018-09-20T04:06:18.859Z,99.99
2018-09-20T04:07:18.799Z,99.99
2018-09-20T04:08:18.740Z,99.99
2018-09-20T04:09:18.679Z,99.99
2018-09-20T04:10:18.623Z,99.99
2018-09-20T04:11:18.555Z,99.99
2018-09-20T04:12:18.497Z,99.99
2018-09-20T04:13:18.436Z,99.99
2018-09-20T04:14:18.374Z,99.99
2018-09-20T04:15:18.317Z,99.99
2018-09-20T04:16:18.255Z,99.99
2018-09-20T04:17:18.191Z,99.99
2018-09-20T04:18:18.140Z,99.99
2018-09-20T04:19:18.078Z,99.99
2018-09-20T04:20:18.012Z,99.99
2018-09-20T04:21:17.948Z,99.99
2018-09-20T04:22:17.889Z,99.99
2018-09-20T04:23:17.828Z,99.99
2018-09-20T04:24:17.768Z,99.99
2018-09-20T04:25:17.705Z,99.99
2018-09-20T04:26:17.645Z,99.99
2018-09-20T04:27:17.586Z,99.99
2018-09-20T04:28:17.523Z,99.99
2018-09-20T04:29:17.463Z,99.99
2018-09-20T04:30:17.403Z,99.99
2018-09-20T04:31:17.343Z,99.99
2018-09-20T04:32:17.284Z,99.99
2018-09-20T04:33:17.219Z,99.99
2018-09-20T04:34:17.159Z,99.99
2018-09-20T04:35:17.108Z,99.99
2018-09-20T04:36:17.038Z,99.99
2018-09-20T04:37:16.978Z,99.99
2018-09-20T04:38:16.917Z,99.99
2018-09-20T04:39:16.857Z,99.99
2018-09-20T04:40:16.797Z,99.99
2018-09-20T04:41:16.735Z,99.99
2018-09-20T04:42:16.674Z,99.99
2018-09-20T04:43:16.615Z,99.99
2018-09-20T04:44:16.553Z,99.99
2018-09-20T04:45:16.492Z,99.99
2018-09-20T04:46:16.431Z,99.99
2018-09-20T04:47:16.371Z,99.99
2018-09-20T04:48:16.309Z,99.99
2018-09-20T04:49:16.247Z,99.99
2018-09-20T04:50:16.189Z,99.99
2018-09-20T04:51:16.127Z,99.99
2018-09-20T04:52:16.069Z,99.99
2018-09-20T04:53:16.063Z,99.99
2018-09-20T04:54:15.947Z,99.99
2018-09-20T04:55:15.886Z,99.99
2018-09-20T04:56:15.824Z,99.99
2018-09-20T04:57:15.764Z,99.99
2018-09-20T04:58:15.703Z,99.99
2018-09-20T04:59:15.643Z,99.99
2018-09-20T05:00:15.581Z,99.99
2018-09-20T05:01:15.521Z,99.99
2018-09-20T05:02:15.460Z,99.99
2018-09-20T05:03:15.398Z,99.99
2018-09-20T05:04:15.339Z,99.99
2018-09-20T05:05:15.280Z,99.99
2018-09-20T05:06:15.216Z,99.99
2018-09-20T05:07:15.156Z,99.99
2018-09-20T05:08:15.095Z,99.99
2018-09-20T05:09:15.035Z,99.99
2018-09-20T05:10:14.973Z,99.99
2018-09-20T05:11:14.913Z,99.99
2018-09-20T05:12:14.852Z,99.99
2018-09-20T05:13:14.792Z,99.99
2018-09-20T05:14:14.730Z,99.99
2018-09-20T05:15:14.671Z,99.99
2018-09-20T05:16:14.610Z,99.99
2018-09-20T05:17:14.550Z,99.99
2018-09-20T05:18:14.488Z,99.99
2018-09-20T05:19:14.426Z,99.99
2018-09-20T05:20:14.402Z,99.99
2018-09-20T05:21:14.308Z,99.99
2018-09-20T05:22:14.245Z,99.99
2018-09-20T05:23:14.184Z,99.99
2018-09-20T05:24:14.123Z,99.99
2018-09-20T05:25:14.061Z,99.99
2018-09-20T05:26:14.001Z,99.99
2018-09-20T05:27:13.943Z,99.99
2018-09-20T05:28:13.929Z,99.99
2018-09-20T05:29:13.817Z,99.99
2018-09-20T05:30:13.787Z,99.99
2018-09-20T05:31:13.697Z,99.99
2018-09-20T05:32:13.636Z,99.99
2018-09-20T05:33:13.614Z,99.99
2018-09-20T05:34:13.515Z,99.99
2018-09-20T05:35:13.454Z,99.99
2018-09-20T05:36:13.392Z,99.99
2018-09-20T05:37:13.332Z,99.99
2018-09-20T05:38:13.273Z,99.99
2018-09-20T05:39:13.211Z,99.99
2018-09-20T05:40:13.153Z,99.99
2018-09-20T05:41:13.093Z,99.99
2018-09-20T05:42:13.028Z,99.99
2018-09-20T05:43:12.977Z,99.99
2018-09-20T05:44:12.908Z,99.99
2018-09-20T05:45:12.846Z,99.99
2018-09-20T05:46:12.790Z,99.99
2018-09-20T05:47:12.726Z,99.99
2018-09-20T05:48:12.666Z,99.99
2018-09-20T05:49:12.607Z,99.99
2018-09-20T05:50:12.540Z,99.99
2018-09-20T05:51:12.494Z,99.99
2018-09-20T05:52:12.422Z,99.99
2018-09-20T05:53:12.379Z,99.99
2018-09-20T05:54:12.302Z,99.99
2018-09-20T05:55:12.245Z,99.99
2018-09-20T05:56:12.192Z,99.99
2018-09-20T05:57:12.116Z,99.99
2018-09-20T05:58:12.056Z,99.99
2018-09-20T05:59:12.010Z,99.99
2018-09-20T06:00:11.937Z,99.99
2018-09-20T06:01:11.874Z,99.99
2018-09-20T06:02:11.814Z,99.99
2018-09-20T06:03:11.759Z,99.99
2018-09-20T06:04:11.694Z,99.99
2018-09-20T06:05:11.634Z,99.99
2018-09-20T06:06:11.575Z,99.99
2018-09-20T06:07:11.511Z,99.99
2018-09-20T06:08:11.452Z,99.99
2018-09-20T06:09:11.393Z,99.99
2018-09-20T06:10:11.329Z,99.99
2018-09-20T06:11:11.271Z,99.99
2018-09-20T06:12:11.208Z,99.99
2018-09-20T06:13:11.159Z,99.99
2018-09-20T06:14:11.088Z,99.99
2018-09-20T06:15:11.028Z,99.99
2018-09-20T06:16:10.967Z,99.99
2018-09-20T06:17:10.909Z,99.99
2018-09-20T06:18:10.850Z,99.99
2018-09-20T06:19:10.787Z,99.99
2018-09-20T06:20:10.788Z,99.99
2018-09-20T06:21:10.665Z,99.99
2018-09-20T06:22:10.606Z,99.99
2018-09-20T06:23:10.544Z,99.99
2018-09-20T06:24:10.482Z,99.99
2018-09-20T06:25:10.426Z,99.99
2018-09-20T06:26:10.363Z,99.99
2018-09-20T06:27:10.302Z,99.99
2018-09-20T06:28:10.243Z,99.99
2018-09-20T06:29:10.181Z,99.99
2018-09-20T06:30:10.123Z,99.99
2018-09-20T06:31:10.061Z,99.99
2018-09-20T06:32:10.000Z,99.99
2018-09-20T06:33:09.947Z,99.99
2018-09-20T06:34:09.880Z,99.99
2018-09-20T06:35:09.820Z,99.99
2018-09-20T06:36:09.760Z,99.99
2018-09-20T06:37:09.702Z,99.99
2018-09-20T06:38:09.639Z,99.99
2018-09-20T06:39:09.578Z,99.99
2018-09-20T06:40:09.520Z,99.99
2018-09-20T06:41:09.487Z,99.99
2018-09-20T06:42:09.397Z,99.99
2018-09-20T06:43:09.340Z,99.99
2018-09-20T06:44:09.279Z,99.99
2018-09-20T06:45:09.219Z,99.99
2018-09-20T06:46:09.159Z,99.99
2018-09-20T06:47:09.098Z,99.99
2018-09-20T06:48:09.045Z,99.99
2018-09-20T06:49:09.019Z,99.99
2018-09-20T06:50:08.921Z,99.99
2018-09-20T06:51:08.856Z,99.99
2018-09-20T06:52:08.799Z,99.99
2018-09-20T06:53:08.737Z,99.99
2018-09-20T06:54:08.676Z,99.99
2018-09-20T06:55:08.620Z,99.99
2018-09-20T06:56:08.559Z,99.99
2018-09-20T06:57:08.496Z,99.99
2018-09-20T06:58:08.438Z,99.99
2018-09-20T06:59:08.377Z,99.99
2018-09-20T07:00:08.321Z,99.99
2018-09-20T07:01:08.256Z,99.99
2018-09-20T07:02:08.198Z,99.99
2018-09-20T07:03:08.193Z,99.99
2018-09-20T07:04:08.079Z,99.99
2018-09-20T07:05:08.019Z,99.99
2018-09-20T07:06:07.958Z,99.99
2018-09-20T07:07:07.898Z,99.99
2018-09-20T07:08:07.838Z,99.99
2018-09-20T07:09:07.778Z,99.99
2018-09-20T07:10:07.720Z,99.99
2018-09-20T07:11:07.660Z,99.99
2018-09-20T07:12:07.600Z,99.99
2018-09-20T07:13:07.538Z,99.99
2018-09-20T07:14:07.478Z,99.99
2018-09-20T07:15:07.421Z,99.99
2018-09-20T07:16:07.364Z,99.99
2018-09-20T07:17:07.299Z,99.99
2018-09-20T07:18:07.241Z,99.99
2018-09-20T07:19:07.221Z,99.35
2018-09-20T07:20:07.122Z,99.99
2018-09-20T07:21:07.068Z,99.99
2018-09-20T07:22:07.004Z,99.35
2018-09-20T07:23:06.942Z,98.68
2018-09-20T07:24:06.883Z,97.52
2018-09-20T07:25:06.865Z,97.76
2018-09-20T07:26:06.762Z,97.96
2018-09-20T07:27:06.704Z,99.30
2018-09-20T07:28:06.645Z,99.21
2018-09-20T07:29:06.585Z,98.53
2018-09-20T07:30:06.526Z,97.57
2018-09-20T07:31:06.468Z,96.61
2018-09-20T07:32:06.407Z,95.65
2018-09-20T07:33:06.346Z,95.36
2018-09-20T07:34:06.288Z,94.68
2018-09-20T07:35:06.229Z,94.88
2018-09-20T07:36:06.171Z,95.36
2018-09-20T07:37:06.110Z,94.78
2018-09-20T07:38:06.052Z,94.01
2018-09-20T07:39:05.990Z,93.34
2018-09-20T07:40:05.932Z,92.13
2018-09-20T07:41:05.873Z,93.00
2018-09-20T07:42:05.813Z,92.61
2018-09-20T07:43:05.756Z,91.66
2018-09-20T07:44:05.695Z,91.75
2018-09-20T07:45:05.633Z,90.98
2018-09-20T07:46:05.575Z,90.69
2018-09-20T07:47:05.516Z,90.31
2018-09-20T07:48:05.463Z,91.08
2018-09-20T07:49:05.400Z,90.89
2018-09-20T07:50:05.339Z,89.92
2018-09-20T07:51:05.279Z,90.16
2018-09-20T07:52:05.221Z,89.78
2018-09-20T07:53:05.161Z,89.92
2018-09-20T07:54:05.102Z,90.73
2018-09-20T07:55:05.045Z,89.20
2018-09-20T07:56:04.986Z,88.91
2018-09-20T07:57:04.931Z,88.62
2018-09-20T07:58:04.865Z,88.53
2018-09-20T07:59:04.807Z,88.62
2018-09-20T08:00:04.749Z,88.71
2018-09-20T08:01:04.689Z,88.76
2018-09-20T08:02:04.685Z,87.99
2018-09-20T08:03:04.572Z,88.38
2018-09-20T08:04:04.511Z,88.76
2018-09-20T08:05:04.454Z,88.57
2018-09-20T08:06:04.395Z,87.90
2018-09-20T08:07:04.352Z,88.57
2018-09-20T08:08:04.276Z,87.60
2018-09-20T08:09:04.218Z,87.03
2018-09-20T08:10:04.161Z,87.12
2018-09-20T08:11:04.103Z,86.45
2018-09-20T08:12:04.047Z,86.83
2018-09-20T08:13:04.037Z,86.88
2018-09-20T08:14:03.924Z,86.49
2018-09-20T08:15:03.890Z,86.40
2018-09-20T08:16:03.806Z,86.21
2018-09-20T08:17:03.747Z,86.11
2018-09-20T08:18:03.689Z,85.91
2018-09-20T08:19:03.631Z,85.43
2018-09-20T08:20:03.572Z,85.53
2018-09-20T08:21:03.513Z,84.95
2018-09-20T08:22:03.455Z,84.70
2018-09-20T08:23:03.398Z,84.99
2018-09-20T08:24:03.339Z,84.32
2018-09-20T08:25:03.281Z,84.03
2018-09-20T08:26:03.221Z,84.03
2018-09-20T08:27:03.165Z,83.07
2018-09-20T08:28:03.105Z,83.36
2018-09-20T08:29:03.048Z,82.82
2018-09-20T08:30:02.989Z,82.72
2018-09-20T08:31:02.961Z,82.53
2018-09-20T08:32:02.871Z,83.01
2018-09-20T08:33:02.812Z,82.53
2018-09-20T08:34:02.755Z,82.34
2018-09-20T08:35:02.697Z,82.34
2018-09-20T08:36:02.640Z,82.34
2018-09-20T08:37:02.626Z,82.14
2018-09-20T08:38:02.523Z,81.37
2018-09-20T08:39:02.464Z,81.09
2018-09-20T08:40:02.409Z,81.32
2018-09-20T08:41:02.349Z,80.83
2018-09-20T08:42:02.304Z,80.64
2018-09-20T08:43:02.236Z,80.54
2018-09-20T08:44:02.173Z,81.12
2018-09-20T08:45:02.118Z,80.74
2018-09-20T08:46:02.058Z,80.54
2018-09-20T08:47:01.999Z,80.16
2018-09-20T08:48:01.946Z,80.26
2018-09-20T08:49:01.894Z,80.35
2018-09-20T08:50:01.826Z,79.58
2018-09-20T08:51:01.834Z,78.94
2018-09-20T08:52:01.713Z,78.94
2018-09-20T08:53:01.652Z,78.66
2018-09-20T08:54:01.596Z,79.04
2018-09-20T08:55:01.540Z,78.85
2018-09-20T08:56:01.480Z,79.33
2018-09-20T08:57:01.436Z,78.75
2018-09-20T08:58:01.364Z,78.27
2018-09-20T08:59:01.308Z,77.78
2018-09-20T09:00:01.247Z,77.83
2018-09-20T09:01:01.190Z,78.21
2018-09-20T09:02:01.134Z,78.79
2018-09-20T09:03:01.077Z,78.31
2018-09-20T09:04:01.018Z,78.11
2018-09-20T09:05:00.961Z,77.83
2018-09-20T09:06:00.902Z,78.21
2018-09-20T09:07:00.845Z,77.83
2018-09-20T09:08:00.792Z,77.83
2018-09-20T09:09:00.730Z,77.15
2018-09-20T09:10:00.671Z,77.25
2018-09-20T09:11:00.617Z,76.95
2018-09-20T09:12:00.614Z,77.83
2018-09-20T09:13:00.501Z,77.25
2018-09-20T09:14:00.442Z,76.86
2018-09-20T09:15:00.385Z,77.05
2018-09-20T09:16:00.327Z,77.28
2018-09-20T09:17:00.273Z,76.22
2018-09-20T09:18:00.216Z,76.42
2018-09-20T09:19:00.156Z,76.42
2018-09-20T09:20:00.099Z,76.22
2018-09-20T09:21:00.041Z,76.22
2018-09-20T09:21:59.985Z,75.78
2018-09-20T09:22:59.926Z,75.39
2018-09-20T09:23:59.870Z,74.52
2018-09-20T09:24:59.815Z,74.42
2018-09-20T09:25:59.755Z,74.32
2018-09-20T09:26:59.701Z,74.13
2018-09-20T09:27:59.640Z,74.32
2018-09-20T09:28:59.584Z,74.36
2018-09-20T09:29:59.529Z,74.23
2018-09-20T09:30:59.468Z,74.52
2018-09-20T09:31:59.414Z,74.36
2018-09-20T09:32:59.357Z,74.55
2018-09-20T09:33:59.318Z,73.97
2018-09-20T09:34:59.242Z,74.17
2018-09-20T09:35:59.185Z,73.88
2018-09-20T09:36:59.128Z,73.59
2018-09-20T09:37:59.070Z,73.30
2018-09-20T09:38:59.015Z,72.72
2018-09-20T09:39:58.959Z,73.10
2018-09-20T09:40:58.902Z,72.56
2018-09-20T09:41:58.877Z,72.08
2018-09-20T09:42:58.790Z,71.88
2018-09-20T09:43:58.733Z,72.36
2018-09-20T09:44:58.675Z,71.98
2018-09-20T09:45:58.616Z,71.69
2018-09-20T09:46:58.560Z,71.11
2018-09-20T09:47:58.544Z,69.79
2018-09-20T09:48:58.448Z,70.56
2018-09-20T09:49:58.393Z,70.37
2018-09-20T09:50:58.333Z,70.18
2018-09-20T09:51:58.277Z,70.18
2018-09-20T09:52:58.221Z,70.95
2018-09-20T09:53:58.168Z,69.31
2018-09-20T09:54:58.115Z,68.33
2018-09-20T09:55:58.052Z,67.60
2018-09-20T09:56:57.998Z,67.21
2018-09-20T09:57:57.939Z,66.24
2018-09-20T09:58:57.884Z,66.75
2018-09-20T09:59:57.828Z,67.24
2018-09-20T10:00:57.771Z,67.34
2018-09-20T10:01:57.714Z,65.79
2018-09-20T10:02:57.656Z,65.69
2018-09-20T10:03:57.602Z,66.08
2018-09-20T10:04:57.544Z,65.98
2018-09-20T10:05:57.487Z,66.95
2018-09-20T10:06:57.489Z,65.69
2018-09-20T10:07:57.375Z,66.17
2018-09-20T10:08:57.319Z,67.14
2018-09-20T10:09:57.266Z,64.92
2018-09-20T10:10:57.213Z,63.65
2018-09-20T10:11:57.152Z,64.04
2018-09-20T10:12:57.120Z,63.88
2018-09-20T10:13:57.041Z,63.10
2018-09-20T10:14:56.983Z,62.91
2018-09-20T10:15:56.956Z,61.78
2018-09-20T10:16:56.872Z,63.30
2018-09-20T10:17:56.815Z,62.26
2018-09-20T10:18:56.760Z,62.26
2018-09-20T10:19:56.760Z,62.46
2018-09-20T10:20:56.648Z,62.65
2018-09-20T10:21:56.594Z,62.95
2018-09-20T10:22:56.537Z,62.95
2018-09-20T10:23:56.538Z,61.39
2018-09-20T10:24:56.426Z,61.81
2018-09-20T10:25:56.370Z,62.19
2018-09-20T10:26:56.317Z,62.39
2018-09-20T10:27:56.266Z,62.59
2018-09-20T10:28:56.203Z,62.01
2018-09-20T10:29:56.147Z,61.52
2018-09-20T10:30:56.093Z,62.10
2018-09-20T10:31:56.038Z,61.91
2018-09-20T10:32:55.982Z,61.61
2018-09-20T10:33:55.977Z,61.52
2018-09-20T10:34:55.872Z,61.22
2018-09-20T10:35:55.816Z,61.04
2018-09-20T10:36:55.759Z,60.45
2018-09-20T10:37:55.706Z,60.64
2018-09-20T10:38:55.649Z,60.25
2018-09-20T10:39:55.595Z,60.45
2018-09-20T10:40:55.539Z,60.84
2018-09-20T10:41:55.483Z,60.74
2018-09-20T10:42:55.429Z,60.64
2018-09-20T10:43:55.375Z,60.74
2018-09-20T10:44:55.320Z,59.31
2018-09-20T10:45:55.266Z,59.41
2018-09-20T10:46:55.209Z,58.93
2018-09-20T10:47:55.154Z,58.15
2018-09-20T10:48:55.099Z,58.34
2018-09-20T10:49:55.042Z,56.79
2018-09-20T10:50:54.988Z,58.34
2018-09-20T10:51:54.932Z,57.57
2018-09-20T10:52:54.876Z,57.18
2018-09-20T10:53:54.822Z,58.44
2018-09-20T10:54:54.769Z,57.67
2018-09-20T10:55:54.721Z,58.05
2018-09-20T10:56:54.663Z,58.05
2018-09-20T10:57:54.602Z,57.57
2018-09-20T10:58:54.552Z,57.57
2018-09-20T10:59:54.504Z,57.28
2018-09-20T11:00:54.437Z,57.86
2018-09-20T11:01:54.382Z,57.96
2018-09-20T11:02:54.373Z,57.37
2018-09-20T11:03:54.272Z,57.37
2018-09-20T11:04:54.220Z,56.21
2018-09-20T11:05:54.163Z,56.30
2018-09-20T11:06:54.108Z,55.92
2018-09-20T11:07:54.065Z,55.43
2018-09-20T11:08:54.001Z,55.04
2018-09-20T11:09:53.946Z,55.24
2018-09-20T11:10:53.915Z,53.71
2018-09-20T11:11:53.834Z,52.74
2018-09-20T11:12:53.778Z,53.91
2018-09-20T11:13:53.724Z,54.20
2018-09-20T11:14:53.670Z,55.55
2018-09-20T11:15:53.625Z,55.07
2018-09-20T11:16:53.558Z,55.36
2018-09-20T11:17:53.503Z,56.24
2018-09-20T11:18:53.452Z,55.46
2018-09-20T11:19:53.393Z,56.62
2018-09-20T11:20:53.337Z,55.27
2018-09-20T11:21:53.282Z,55.85
2018-09-20T11:22:53.231Z,55.85
2018-09-20T11:23:53.176Z,56.52
2018-09-20T11:24:53.119Z,56.14
2018-09-20T11:25:53.122Z,56.62
2018-09-20T11:26:53.008Z,55.85
2018-09-20T11:27:52.955Z,55.36
2018-09-20T11:28:52.899Z,54.00
2018-09-20T11:29:52.846Z,53.42
2018-09-20T11:30:52.790Z,54.10
2018-09-20T11:31:52.736Z,53.91
2018-09-20T11:32:52.678Z,54.49
2018-09-20T11:33:52.625Z,54.00
2018-09-20T11:34:52.570Z,54.39
2018-09-20T11:35:52.516Z,54.00
2018-09-20T11:36:52.468Z,54.39
2018-09-20T11:37:52.409Z,54.00
2018-09-20T11:38:52.350Z,55.27
2018-09-20T11:39:52.297Z,54.78
2018-09-20T11:40:52.240Z,54.58
2018-09-20T11:41:52.186Z,54.49
2018-09-20T11:42:52.135Z,55.65
2018-09-20T11:43:52.075Z,54.29
2018-09-20T11:44:52.020Z,54.39
2018-09-20T11:45:51.965Z,54.00
2018-09-20T11:46:51.916Z,53.91
2018-09-20T11:47:51.856Z,53.91
2018-09-20T11:48:51.804Z,54.68
2018-09-20T11:49:51.746Z,53.91
2018-09-20T11:50:51.695Z,52.64
2018-09-20T11:51:51.638Z,52.81
2018-09-20T11:52:51.580Z,51.93
2018-09-20T11:53:51.526Z,51.48
2018-09-20T11:54:51.470Z,51.28
2018-09-20T11:55:51.416Z,52.15
2018-09-20T11:56:51.360Z,51.67
2018-09-20T11:57:51.303Z,50.41
2018-09-20T11:58:51.249Z,50.31
2018-09-20T11:59:51.195Z,51.87
2018-09-20T12:00:51.138Z,50.21
2018-09-20T12:01:51.095Z,50.41
2018-09-20T12:02:51.031Z,50.04
2018-09-20T12:03:50.977Z,50.53
2018-09-20T12:04:50.919Z,51.11
2018-09-20T12:05:50.864Z,51.21
2018-09-20T12:06:50.810Z,51.99
2018-09-20T12:07:50.756Z,51.87
2018-09-20T12:08:50.703Z,50.51
2018-09-20T12:09:50.656Z,48.85
2018-09-20T12:10:50.595Z,50.51
2018-09-20T12:11:50.536Z,50.31
2018-09-20T12:12:50.479Z,48.37
2018-09-20T12:13:50.423Z,48.85
2018-09-20T12:14:50.367Z,47.98
2018-09-20T12:15:50.312Z,47.88
2018-09-20T12:16:50.258Z,49.44
2018-09-20T12:17:50.202Z,50.12
2018-09-20T12:18:50.147Z,48.75
2018-09-20T12:19:50.140Z,49.05
2018-09-20T12:20:50.036Z,48.88
2018-09-20T12:21:49.983Z,49.05
2018-09-20T12:22:49.933Z,47.01
2018-09-20T12:23:49.872Z,46.84
2018-09-20T12:24:49.817Z,47.69
2018-09-20T12:25:49.778Z,45.45
2018-09-20T12:26:49.706Z,45.94
2018-09-20T12:27:49.651Z,47.11
2018-09-20T12:28:49.595Z,46.91
2018-09-20T12:29:49.542Z,47.18
2018-09-20T12:30:49.488Z,46.21
2018-09-20T12:31:49.488Z,45.07
2018-09-20T12:32:49.386Z,45.94
2018-09-20T12:33:49.321Z,46.06
2018-09-20T12:34:49.266Z,45.77
2018-09-20T12:35:49.410Z,46.55
2018-09-20T12:36:49.155Z,45.57
2018-09-20T12:37:49.099Z,45.87
2018-09-20T12:38:49.056Z,45.28
2018-09-20T12:39:48.992Z,44.79
2018-09-20T12:40:48.934Z,45.57
2018-09-20T12:41:48.878Z,45.28
2018-09-20T12:42:48.874Z,45.18
2018-09-20T12:43:48.770Z,45.28
2018-09-20T12:44:48.712Z,45.87
2018-09-20T12:45:48.663Z,46.45
2018-09-20T12:46:48.605Z,45.97
2018-09-20T12:47:48.550Z,46.45
2018-09-20T12:48:48.494Z,45.38
2018-09-20T12:49:48.437Z,44.60
2018-09-20T12:50:48.384Z,43.82
2018-09-20T12:51:48.329Z,42.85